sensor_id;sensor_type;location;lat;lon;timestamp;temperature;humidity
17348;DHT22;8791;50.876;4.342;2024-02-23T00:02:13;6.30;99.90
17348;DHT22;8791;50.876;4.342;2024-02-23T00:04:39;6.30;99.90
17348;DHT22;8791;50.876;4.342;2024-02-23T00:07:07;6.40;99.90
17348;DHT22;8791;50.876;4.342;2024-02-23T00:09:34;6.40;99.90
17348;DHT22;8791;50.876;4.342;2024-02-23T00:12:01;6.40;99.90
17348;DHT22;8791;50.876;4.342;2024-02-23T00:14:29;6.50;99.90
17348;DHT22;8791;50.876;4.342;2024-02-23T00:16:57;6.20;99.90
17348;DHT22;8791;50.876;4.342;2024-02-23T00:19:24;6.20;99.90
17348;DHT22;8791;50.876;4.342;2024-02-23T00:21:51;6.10;99.90
17348;DHT22;8791;50.876;4.342;2024-02-23T00:24:18;6.10;99.90
17348;DHT22;8791;50.876;4.342;2024-02-23T00:26:47;6.10;99.90
17348;DHT22;8791;50.876;4.342;2024-02-23T00:29:14;6.00;99.90
17348;DHT22;8791;50.876;4.342;2024-02-23T00:31:42;6.10;99.90
17348;DHT22;8791;50.876;4.342;2024-02-23T00:34:11;6.10;99.90
17348;DHT22;8791;50.876;4.342;2024-02-23T00:36:39;6.10;99.90
17348;DHT22;8791;50.876;4.342;2024-02-23T00:39:06;6.10;99.90
17348;DHT22;8791;50.876;4.342;2024-02-23T00:41:33;6.10;99.90
17348;DHT22;8791;50.876;4.342;2024-02-23T00:44:00;6.20;99.90
17348;DHT22;8791;50.876;4.342;2024-02-23T00:46:27;6.00;99.90
17348;DHT22;8791;50.876;4.342;2024-02-23T00:48:55;6.00;99.90
17348;DHT22;8791;50.876;4.342;2024-02-23T00:51:22;6.00;99.90
17348;DHT22;8791;50.876;4.342;2024-02-23T00:53:49;5.80;99.90
17348;DHT22;8791;50.876;4.342;2024-02-23T00:56:16;5.80;99.90
17348;DHT22;8791;50.876;4.342;2024-02-23T00:58:44;5.70;99.90
17348;DHT22;8791;50.876;4.342;2024-02-23T01:01:11;5.80;99.90
17348;DHT22;8791;50.876;4.342;2024-02-23T01:03:38;5.70;99.90
17348;DHT22;8791;50.876;4.342;2024-02-23T01:06:06;5.60;99.90
17348;DHT22;8791;50.876;4.342;2024-02-23T01:08:33;5.60;99.90
17348;DHT22;8791;50.876;4.342;2024-02-23T01:11:01;5.70;99.90
17348;DHT22;8791;50.876;4.342;2024-02-23T01:13:28;5.70;99.90
17348;DHT22;8791;50.876;4.342;2024-02-23T01:15:55;5.70;99.90
17348;DHT22;8791;50.876;4.342;2024-02-23T01:18:21;5.80;99.90
17348;DHT22;8791;50.876;4.342;2024-02-23T01:20:48;5.70;99.90
17348;DHT22;8791;50.876;4.342;2024-02-23T01:23:16;5.70;99.90
17348;DHT22;8791;50.876;4.342;2024-02-23T01:25:43;5.60;99.90
17348;DHT22;8791;50.876;4.342;2024-02-23T01:28:10;5.70;99.90
17348;DHT22;8791;50.876;4.342;2024-02-23T01:30:37;5.60;99.90
17348;DHT22;8791;50.876;4.342;2024-02-23T01:33:04;5.70;99.90
17348;DHT22;8791;50.876;4.342;2024-02-23T01:35:31;5.70;99.90
17348;DHT22;8791;50.876;4.342;2024-02-23T01:37:58;5.80;99.90
17348;DHT22;8791;50.876;4.342;2024-02-23T01:40:26;5.80;99.90
17348;DHT22;8791;50.876;4.342;2024-02-23T01:43:03;5.80;99.90
17348;DHT22;8791;50.876;4.342;2024-02-23T01:45:31;5.80;99.90
17348;DHT22;8791;50.876;4.342;2024-02-23T01:47:58;5.70;99.90
17348;DHT22;8791;50.876;4.342;2024-02-23T01:50:26;5.60;99.90
17348;DHT22;8791;50.876;4.342;2024-02-23T01:52:53;5.80;99.90
17348;DHT22;8791;50.876;4.342;2024-02-23T01:55:20;5.70;99.90
17348;DHT22;8791;50.876;4.342;2024-02-23T01:57:49;5.80;99.90
17348;DHT22;8791;50.876;4.342;2024-02-23T02:00:18;5.90;99.90
17348;DHT22;8791;50.876;4.342;2024-02-23T02:02:47;5.80;99.90
17348;DHT22;8791;50.876;4.342;2024-02-23T02:05:14;5.80;99.90
17348;DHT22;8791;50.876;4.342;2024-02-23T02:07:41;5.80;99.90
17348;DHT22;8791;50.876;4.342;2024-02-23T02:10:09;5.80;99.90
17348;DHT22;8791;50.876;4.342;2024-02-23T02:12:36;5.80;99.90
17348;DHT22;8791;50.876;4.342;2024-02-23T02:15:06;5.80;99.90
17348;DHT22;8791;50.876;4.342;2024-02-23T02:17:33;5.70;99.90
17348;DHT22;8791;50.876;4.342;2024-02-23T02:20:02;5.80;99.90
17348;DHT22;8791;50.876;4.342;2024-02-23T02:22:32;5.90;99.90
17348;DHT22;8791;50.876;4.342;2024-02-23T02:24:59;5.90;99.90
17348;DHT22;8791;50.876;4.342;2024-02-23T02:27:26;5.80;99.90
17348;DHT22;8791;50.876;4.342;2024-02-23T02:29:53;5.90;99.90
17348;DHT22;8791;50.876;4.342;2024-02-23T02:32:22;5.90;99.90
17348;DHT22;8791;50.876;4.342;2024-02-23T02:34:49;5.90;99.90
17348;DHT22;8791;50.876;4.342;2024-02-23T02:37:16;5.90;99.90
17348;DHT22;8791;50.876;4.342;2024-02-23T02:39:43;5.80;99.90
17348;DHT22;8791;50.876;4.342;2024-02-23T02:42:10;5.80;99.90
17348;DHT22;8791;50.876;4.342;2024-02-23T02:44:37;5.80;99.90
17348;DHT22;8791;50.876;4.342;2024-02-23T02:47:04;5.90;99.90
17348;DHT22;8791;50.876;4.342;2024-02-23T02:49:32;5.90;99.90
17348;DHT22;8791;50.876;4.342;2024-02-23T02:51:59;5.90;99.90
17348;DHT22;8791;50.876;4.342;2024-02-23T02:54:26;6.00;99.90
17348;DHT22;8791;50.876;4.342;2024-02-23T02:56:53;5.90;99.90
17348;DHT22;8791;50.876;4.342;2024-02-23T02:59:20;6.00;99.90
17348;DHT22;8791;50.876;4.342;2024-02-23T03:01:47;6.00;99.90
17348;DHT22;8791;50.876;4.342;2024-02-23T03:04:14;5.90;99.90
17348;DHT22;8791;50.876;4.342;2024-02-23T03:06:42;6.00;99.90
17348;DHT22;8791;50.876;4.342;2024-02-23T03:09:09;6.10;99.90
17348;DHT22;8791;50.876;4.342;2024-02-23T03:11:36;6.10;99.90
17348;DHT22;8791;50.876;4.342;2024-02-23T03:14:03;6.10;99.90
17348;DHT22;8791;50.876;4.342;2024-02-23T03:16:30;6.20;99.90
17348;DHT22;8791;50.876;4.342;2024-02-23T03:18:57;6.10;99.90
17348;DHT22;8791;50.876;4.342;2024-02-23T03:21:24;6.10;99.90
17348;DHT22;8791;50.876;4.342;2024-02-23T03:23:52;6.10;99.90
17348;DHT22;8791;50.876;4.342;2024-02-23T03:26:19;6.00;99.90
17348;DHT22;8791;50.876;4.342;2024-02-23T03:28:45;6.00;99.90
17348;DHT22;8791;50.876;4.342;2024-02-23T03:31:14;6.00;99.90
17348;DHT22;8791;50.876;4.342;2024-02-23T03:33:41;6.10;99.90
17348;DHT22;8791;50.876;4.342;2024-02-23T03:36:07;6.20;99.90
17348;DHT22;8791;50.876;4.342;2024-02-23T03:38:34;6.20;99.90
17348;DHT22;8791;50.876;4.342;2024-02-23T03:41:03;6.20;99.90
17348;DHT22;8791;50.876;4.342;2024-02-23T03:43:30;6.20;99.90
17348;DHT22;8791;50.876;4.342;2024-02-23T03:45:57;6.00;99.90
17348;DHT22;8791;50.876;4.342;2024-02-23T03:48:24;6.00;99.90
17348;DHT22;8791;50.876;4.342;2024-02-23T03:50:51;6.10;99.90
17348;DHT22;8791;50.876;4.342;2024-02-23T03:53:19;6.10;99.90
17348;DHT22;8791;50.876;4.342;2024-02-23T03:55:47;6.10;99.90
17348;DHT22;8791;50.876;4.342;2024-02-23T03:58:16;6.00;99.90
17348;DHT22;8791;50.876;4.342;2024-02-23T04:00:43;6.00;99.90
17348;DHT22;8791;50.876;4.342;2024-02-23T04:03:10;6.20;99.90
17348;DHT22;8791;50.876;4.342;2024-02-23T04:05:37;6.10;99.90
17348;DHT22;8791;50.876;4.342;2024-02-23T04:08:04;6.00;99.90
17348;DHT22;8791;50.876;4.342;2024-02-23T04:10:31;6.10;99.90
17348;DHT22;8791;50.876;4.342;2024-02-23T04:12:59;6.10;99.90
17348;DHT22;8791;50.876;4.342;2024-02-23T04:15:27;6.10;99.90
17348;DHT22;8791;50.876;4.342;2024-02-23T04:17:54;6.10;99.90
17348;DHT22;8791;50.876;4.342;2024-02-23T04:20:21;6.10;99.90
17348;DHT22;8791;50.876;4.342;2024-02-23T04:22:48;6.20;99.90
17348;DHT22;8791;50.876;4.342;2024-02-23T04:25:15;6.20;99.90
17348;DHT22;8791;50.876;4.342;2024-02-23T04:27:42;6.20;99.90
17348;DHT22;8791;50.876;4.342;2024-02-23T04:30:10;6.10;99.90
17348;DHT22;8791;50.876;4.342;2024-02-23T04:32:39;6.10;99.90
17348;DHT22;8791;50.876;4.342;2024-02-23T04:35:06;6.10;99.90
17348;DHT22;8791;50.876;4.342;2024-02-23T04:37:33;6.20;99.90
17348;DHT22;8791;50.876;4.342;2024-02-23T04:40:00;6.30;99.90
17348;DHT22;8791;50.876;4.342;2024-02-23T04:42:27;6.20;99.90
17348;DHT22;8791;50.876;4.342;2024-02-23T04:44:54;6.10;99.90
17348;DHT22;8791;50.876;4.342;2024-02-23T04:47:21;6.10;99.90
17348;DHT22;8791;50.876;4.342;2024-02-23T04:49:49;6.20;99.90
17348;DHT22;8791;50.876;4.342;2024-02-23T04:52:16;6.20;99.90
17348;DHT22;8791;50.876;4.342;2024-02-23T04:54:43;6.20;99.90
17348;DHT22;8791;50.876;4.342;2024-02-23T04:57:10;6.30;99.90
17348;DHT22;8791;50.876;4.342;2024-02-23T04:59:36;6.30;99.90
17348;DHT22;8791;50.876;4.342;2024-02-23T05:02:03;6.30;99.90
17348;DHT22;8791;50.876;4.342;2024-02-23T05:04:30;6.30;99.90
17348;DHT22;8791;50.876;4.342;2024-02-23T05:07:00;6.30;99.90
17348;DHT22;8791;50.876;4.342;2024-02-23T05:09:27;6.30;99.90
17348;DHT22;8791;50.876;4.342;2024-02-23T05:11:54;6.40;99.90
17348;DHT22;8791;50.876;4.342;2024-02-23T05:14:21;6.40;99.90
17348;DHT22;8791;50.876;4.342;2024-02-23T05:16:48;6.40;99.90
17348;DHT22;8791;50.876;4.342;2024-02-23T05:19:15;6.50;99.90
17348;DHT22;8791;50.876;4.342;2024-02-23T05:21:42;6.50;99.90
17348;DHT22;8791;50.876;4.342;2024-02-23T05:24:11;6.40;99.90
17348;DHT22;8791;50.876;4.342;2024-02-23T05:26:38;6.40;99.90
17348;DHT22;8791;50.876;4.342;2024-02-23T05:29:05;6.50;99.90
17348;DHT22;8791;50.876;4.342;2024-02-23T05:31:44;6.50;99.90
17348;DHT22;8791;50.876;4.342;2024-02-23T05:34:12;6.40;99.90
17348;DHT22;8791;50.876;4.342;2024-02-23T05:36:39;6.40;99.90
17348;DHT22;8791;50.876;4.342;2024-02-23T05:39:06;6.40;99.90
17348;DHT22;8791;50.876;4.342;2024-02-23T05:41:35;6.40;99.90
17348;DHT22;8791;50.876;4.342;2024-02-23T05:44:02;6.30;99.90
17348;DHT22;8791;50.876;4.342;2024-02-23T05:46:31;6.30;99.90
17348;DHT22;8791;50.876;4.342;2024-02-23T05:48:58;6.30;99.90
17348;DHT22;8791;50.876;4.342;2024-02-23T05:51:25;6.30;99.90
17348;DHT22;8791;50.876;4.342;2024-02-23T05:53:54;6.30;99.90
17348;DHT22;8791;50.876;4.342;2024-02-23T05:56:21;6.30;99.90
17348;DHT22;8791;50.876;4.342;2024-02-23T05:58:50;6.30;99.90
17348;DHT22;8791;50.876;4.342;2024-02-23T06:01:18;6.40;99.90
17348;DHT22;8791;50.876;4.342;2024-02-23T06:03:48;6.40;99.90
17348;DHT22;8791;50.876;4.342;2024-02-23T06:06:16;6.40;99.90
17348;DHT22;8791;50.876;4.342;2024-02-23T06:08:43;6.30;99.90
17348;DHT22;8791;50.876;4.342;2024-02-23T06:11:12;6.30;99.90
17348;DHT22;8791;50.876;4.342;2024-02-23T06:13:38;6.20;99.90
17348;DHT22;8791;50.876;4.342;2024-02-23T06:16:10;6.20;99.90
17348;DHT22;8791;50.876;4.342;2024-02-23T06:18:39;6.30;99.90
17348;DHT22;8791;50.876;4.342;2024-02-23T06:21:14;6.20;99.90
17348;DHT22;8791;50.876;4.342;2024-02-23T06:23:41;6.20;99.90
17348;DHT22;8791;50.876;4.342;2024-02-23T06:26:08;6.20;99.90
17348;DHT22;8791;50.876;4.342;2024-02-23T06:28:35;6.20;99.90
17348;DHT22;8791;50.876;4.342;2024-02-23T06:31:04;6.20;99.90
17348;DHT22;8791;50.876;4.342;2024-02-23T06:33:32;6.20;99.90
17348;DHT22;8791;50.876;4.342;2024-02-23T06:35:59;6.30;99.90
17348;DHT22;8791;50.876;4.342;2024-02-23T06:38:27;6.30;99.90
17348;DHT22;8791;50.876;4.342;2024-02-23T06:40:54;6.30;99.90
17348;DHT22;8791;50.876;4.342;2024-02-23T06:43:22;6.30;99.90
17348;DHT22;8791;50.876;4.342;2024-02-23T06:45:49;6.30;99.90
17348;DHT22;8791;50.876;4.342;2024-02-23T06:48:15;6.40;99.90
17348;DHT22;8791;50.876;4.342;2024-02-23T06:50:44;6.40;99.90
17348;DHT22;8791;50.876;4.342;2024-02-23T06:53:10;6.40;99.90
17348;DHT22;8791;50.876;4.342;2024-02-23T06:55:37;6.40;99.90
17348;DHT22;8791;50.876;4.342;2024-02-23T06:58:04;6.50;99.90
17348;DHT22;8791;50.876;4.342;2024-02-23T07:00:32;6.60;99.90
17348;DHT22;8791;50.876;4.342;2024-02-23T07:02:59;6.40;99.90
17348;DHT22;8791;50.876;4.342;2024-02-23T07:05:29;6.40;99.90
17348;DHT22;8791;50.876;4.342;2024-02-23T07:07:57;6.30;99.90
17348;DHT22;8791;50.876;4.342;2024-02-23T07:10:24;6.40;99.90
17348;DHT22;8791;50.876;4.342;2024-02-23T07:12:51;6.50;99.90
17348;DHT22;8791;50.876;4.342;2024-02-23T07:15:19;6.40;99.90
17348;DHT22;8791;50.876;4.342;2024-02-23T07:17:46;6.50;99.90
17348;DHT22;8791;50.876;4.342;2024-02-23T07:20:14;6.60;99.90
17348;DHT22;8791;50.876;4.342;2024-02-23T07:22:43;6.60;99.90
17348;DHT22;8791;50.876;4.342;2024-02-23T07:25:15;6.60;99.90
17348;DHT22;8791;50.876;4.342;2024-02-23T07:27:42;6.60;99.90
17348;DHT22;8791;50.876;4.342;2024-02-23T07:30:10;6.50;99.90
17348;DHT22;8791;50.876;4.342;2024-02-23T07:32:37;6.50;99.90
17348;DHT22;8791;50.876;4.342;2024-02-23T07:35:04;6.70;99.90
17348;DHT22;8791;50.876;4.342;2024-02-23T07:37:31;6.60;99.90
17348;DHT22;8791;50.876;4.342;2024-02-23T07:39:58;6.70;99.90
17348;DHT22;8791;50.876;4.342;2024-02-23T07:42:26;6.70;99.90
17348;DHT22;8791;50.876;4.342;2024-02-23T07:44:53;6.80;99.90
17348;DHT22;8791;50.876;4.342;2024-02-23T07:47:20;6.70;99.90
17348;DHT22;8791;50.876;4.342;2024-02-23T07:49:47;6.70;99.90
17348;DHT22;8791;50.876;4.342;2024-02-23T07:52:14;6.80;99.90
17348;DHT22;8791;50.876;4.342;2024-02-23T07:54:41;6.70;99.90
17348;DHT22;8791;50.876;4.342;2024-02-23T07:57:08;6.70;99.90
17348;DHT22;8791;50.876;4.342;2024-02-23T07:59:36;6.70;99.90
17348;DHT22;8791;50.876;4.342;2024-02-23T08:02:03;6.70;99.90
17348;DHT22;8791;50.876;4.342;2024-02-23T08:04:32;6.80;99.90
17348;DHT22;8791;50.876;4.342;2024-02-23T08:06:59;6.90;99.90
17348;DHT22;8791;50.876;4.342;2024-02-23T08:09:26;6.90;99.90
17348;DHT22;8791;50.876;4.342;2024-02-23T08:11:53;6.90;99.90
17348;DHT22;8791;50.876;4.342;2024-02-23T08:14:20;6.70;99.90
17348;DHT22;8791;50.876;4.342;2024-02-23T08:16:48;6.60;99.90
17348;DHT22;8791;50.876;4.342;2024-02-23T08:19:16;6.50;99.90
17348;DHT22;8791;50.876;4.342;2024-02-23T08:21:43;6.50;99.90
17348;DHT22;8791;50.876;4.342;2024-02-23T08:24:10;6.40;99.90
17348;DHT22;8791;50.876;4.342;2024-02-23T08:26:37;6.40;99.90
17348;DHT22;8791;50.876;4.342;2024-02-23T08:29:05;6.30;99.90
17348;DHT22;8791;50.876;4.342;2024-02-23T08:31:32;6.30;99.90
17348;DHT22;8791;50.876;4.342;2024-02-23T08:34:00;6.20;99.90
17348;DHT22;8791;50.876;4.342;2024-02-23T08:36:28;6.20;99.90
17348;DHT22;8791;50.876;4.342;2024-02-23T08:38:55;6.10;99.90
17348;DHT22;8791;50.876;4.342;2024-02-23T08:41:22;6.00;99.90
17348;DHT22;8791;50.876;4.342;2024-02-23T08:43:49;6.00;99.90
17348;DHT22;8791;50.876;4.342;2024-02-23T08:46:16;6.00;99.90
17348;DHT22;8791;50.876;4.342;2024-02-23T08:48:44;6.00;99.90
17348;DHT22;8791;50.876;4.342;2024-02-23T08:51:12;6.10;99.90
17348;DHT22;8791;50.876;4.342;2024-02-23T08:53:39;6.10;99.90
17348;DHT22;8791;50.876;4.342;2024-02-23T08:56:06;6.20;99.90
17348;DHT22;8791;50.876;4.342;2024-02-23T08:58:33;6.10;99.90
17348;DHT22;8791;50.876;4.342;2024-02-23T09:01:00;6.10;99.90
17348;DHT22;8791;50.876;4.342;2024-02-23T09:03:29;6.20;99.90
17348;DHT22;8791;50.876;4.342;2024-02-23T09:05:57;6.20;99.90
17348;DHT22;8791;50.876;4.342;2024-02-23T09:08:25;6.20;99.90
17348;DHT22;8791;50.876;4.342;2024-02-23T09:10:52;6.20;99.90
17348;DHT22;8791;50.876;4.342;2024-02-23T09:13:19;6.30;99.90
17348;DHT22;8791;50.876;4.342;2024-02-23T09:15:46;6.30;99.90
17348;DHT22;8791;50.876;4.342;2024-02-23T09:18:16;6.30;99.90
17348;DHT22;8791;50.876;4.342;2024-02-23T09:20:44;6.30;99.90
17348;DHT22;8791;50.876;4.342;2024-02-23T09:23:11;6.30;99.90
17348;DHT22;8791;50.876;4.342;2024-02-23T09:25:39;6.50;99.90
17348;DHT22;8791;50.876;4.342;2024-02-23T09:28:07;6.50;99.90
17348;DHT22;8791;50.876;4.342;2024-02-23T09:30:36;6.60;99.90
17348;DHT22;8791;50.876;4.342;2024-02-23T09:33:04;6.70;99.90
17348;DHT22;8791;50.876;4.342;2024-02-23T09:35:31;6.80;99.90
17348;DHT22;8791;50.876;4.342;2024-02-23T09:37:57;6.70;99.90
17348;DHT22;8791;50.876;4.342;2024-02-23T09:40:24;6.80;99.90
17348;DHT22;8791;50.876;4.342;2024-02-23T09:42:56;6.90;99.90
17348;DHT22;8791;50.876;4.342;2024-02-23T09:45:24;6.90;99.90
17348;DHT22;8791;50.876;4.342;2024-02-23T09:47:53;6.90;99.90
17348;DHT22;8791;50.876;4.342;2024-02-23T09:50:22;7.00;99.90
17348;DHT22;8791;50.876;4.342;2024-02-23T09:52:49;6.90;99.90
17348;DHT22;8791;50.876;4.342;2024-02-23T09:55:17;7.00;99.90
17348;DHT22;8791;50.876;4.342;2024-02-23T09:57:44;7.00;99.90
17348;DHT22;8791;50.876;4.342;2024-02-23T10:00:16;7.20;99.90
17348;DHT22;8791;50.876;4.342;2024-02-23T10:02:44;7.20;99.90
17348;DHT22;8791;50.876;4.342;2024-02-23T10:05:11;7.40;99.90
17348;DHT22;8791;50.876;4.342;2024-02-23T10:07:39;7.40;99.90
17348;DHT22;8791;50.876;4.342;2024-02-23T10:10:07;7.50;99.90
17348;DHT22;8791;50.876;4.342;2024-02-23T10:12:36;7.50;99.90
17348;DHT22;8791;50.876;4.342;2024-02-23T10:15:04;7.60;99.90
17348;DHT22;8791;50.876;4.342;2024-02-23T10:17:33;7.50;99.90
17348;DHT22;8791;50.876;4.342;2024-02-23T10:20:00;7.50;99.90
17348;DHT22;8791;50.876;4.342;2024-02-23T10:22:30;7.50;99.90
17348;DHT22;8791;50.876;4.342;2024-02-23T10:24:57;7.60;99.90
17348;DHT22;8791;50.876;4.342;2024-02-23T10:27:24;7.70;99.90
17348;DHT22;8791;50.876;4.342;2024-02-23T10:29:51;7.90;99.90
17348;DHT22;8791;50.876;4.342;2024-02-23T10:32:20;8.00;99.90
17348;DHT22;8791;50.876;4.342;2024-02-23T10:34:49;8.20;99.90
17348;DHT22;8791;50.876;4.342;2024-02-23T10:37:17;8.20;99.90
17348;DHT22;8791;50.876;4.342;2024-02-23T10:39:46;8.10;99.90
17348;DHT22;8791;50.876;4.342;2024-02-23T10:42:12;7.90;99.90
17348;DHT22;8791;50.876;4.342;2024-02-23T10:44:42;8.00;99.90
17348;DHT22;8791;50.876;4.342;2024-02-23T10:47:11;8.00;99.90
17348;DHT22;8791;50.876;4.342;2024-02-23T10:49:38;8.30;99.90
17348;DHT22;8791;50.876;4.342;2024-02-23T10:52:09;8.10;99.90
17348;DHT22;8791;50.876;4.342;2024-02-23T10:54:38;8.00;99.90
17348;DHT22;8791;50.876;4.342;2024-02-23T10:57:06;8.00;99.90
17348;DHT22;8791;50.876;4.342;2024-02-23T10:59:33;8.00;99.90
17348;DHT22;8791;50.876;4.342;2024-02-23T11:02:01;8.00;99.90
17348;DHT22;8791;50.876;4.342;2024-02-23T11:04:31;8.10;99.90
17348;DHT22;8791;50.876;4.342;2024-02-23T11:06:59;8.20;99.90
17348;DHT22;8791;50.876;4.342;2024-02-23T11:09:31;8.30;99.90
17348;DHT22;8791;50.876;4.342;2024-02-23T11:11:59;8.30;99.90
17348;DHT22;8791;50.876;4.342;2024-02-23T11:14:30;8.40;99.90
17348;DHT22;8791;50.876;4.342;2024-02-23T11:16:58;8.30;99.90
17348;DHT22;8791;50.876;4.342;2024-02-23T11:19:32;8.00;99.90
17348;DHT22;8791;50.876;4.342;2024-02-23T11:22:00;8.10;99.90
17348;DHT22;8791;50.876;4.342;2024-02-23T11:24:28;8.10;99.90
17348;DHT22;8791;50.876;4.342;2024-02-23T11:26:57;8.20;99.90
17348;DHT22;8791;50.876;4.342;2024-02-23T11:29:29;8.20;99.90
17348;DHT22;8791;50.876;4.342;2024-02-23T11:31:58;8.30;99.90
17348;DHT22;8791;50.876;4.342;2024-02-23T11:34:29;8.20;99.90
17348;DHT22;8791;50.876;4.342;2024-02-23T11:36:57;8.20;99.90
17348;DHT22;8791;50.876;4.342;2024-02-23T11:39:26;8.10;99.90
17348;DHT22;8791;50.876;4.342;2024-02-23T11:41:53;8.20;99.90
17348;DHT22;8791;50.876;4.342;2024-02-23T11:44:21;8.40;99.90
17348;DHT22;8791;50.876;4.342;2024-02-23T11:46:48;8.30;99.90
17348;DHT22;8791;50.876;4.342;2024-02-23T11:49:15;8.30;99.90
17348;DHT22;8791;50.876;4.342;2024-02-23T11:51:42;8.30;99.90
17348;DHT22;8791;50.876;4.342;2024-02-23T11:54:10;8.30;99.90
17348;DHT22;8791;50.876;4.342;2024-02-23T11:56:37;8.30;99.90
17348;DHT22;8791;50.876;4.342;2024-02-23T11:59:04;8.50;99.90
17348;DHT22;8791;50.876;4.342;2024-02-23T12:01:33;8.40;99.90
17348;DHT22;8791;50.876;4.342;2024-02-23T12:04:00;8.20;99.90
17348;DHT22;8791;50.876;4.342;2024-02-23T12:06:27;8.30;99.90
17348;DHT22;8791;50.876;4.342;2024-02-23T12:08:58;8.40;99.90
17348;DHT22;8791;50.876;4.342;2024-02-23T12:11:25;8.40;99.90
17348;DHT22;8791;50.876;4.342;2024-02-23T12:13:53;8.40;99.90
17348;DHT22;8791;50.876;4.342;2024-02-23T12:16:21;8.50;99.90
17348;DHT22;8791;50.876;4.342;2024-02-23T12:18:54;8.50;99.90
17348;DHT22;8791;50.876;4.342;2024-02-23T12:21:23;8.40;99.90
17348;DHT22;8791;50.876;4.342;2024-02-23T12:23:50;8.50;99.90
17348;DHT22;8791;50.876;4.342;2024-02-23T12:26:18;8.60;99.90
17348;DHT22;8791;50.876;4.342;2024-02-23T12:28:45;8.80;99.90
17348;DHT22;8791;50.876;4.342;2024-02-23T12:31:12;8.90;99.90
17348;DHT22;8791;50.876;4.342;2024-02-23T12:33:41;8.90;99.90
17348;DHT22;8791;50.876;4.342;2024-02-23T12:36:15;8.70;99.90
17348;DHT22;8791;50.876;4.342;2024-02-23T12:38:43;8.60;99.90
17348;DHT22;8791;50.876;4.342;2024-02-23T12:41:10;8.70;99.90
17348;DHT22;8791;50.876;4.342;2024-02-23T12:43:37;8.70;99.90
17348;DHT22;8791;50.876;4.342;2024-02-23T12:46:04;8.90;99.90
17348;DHT22;8791;50.876;4.342;2024-02-23T12:48:32;9.00;99.90
17348;DHT22;8791;50.876;4.342;2024-02-23T12:50:59;8.90;99.90
17348;DHT22;8791;50.876;4.342;2024-02-23T12:53:34;9.00;99.90
17348;DHT22;8791;50.876;4.342;2024-02-23T12:56:03;8.90;99.90
17348;DHT22;8791;50.876;4.342;2024-02-23T12:58:30;8.80;99.90
17348;DHT22;8791;50.876;4.342;2024-02-23T13:00:57;8.90;99.90
17348;DHT22;8791;50.876;4.342;2024-02-23T13:03:24;9.00;99.90
17348;DHT22;8791;50.876;4.342;2024-02-23T13:05:52;9.00;99.90
17348;DHT22;8791;50.876;4.342;2024-02-23T13:08:20;9.10;99.90
17348;DHT22;8791;50.876;4.342;2024-02-23T13:10:49;9.10;99.90
17348;DHT22;8791;50.876;4.342;2024-02-23T13:13:16;9.00;99.90
17348;DHT22;8791;50.876;4.342;2024-02-23T13:15:43;9.00;99.90
17348;DHT22;8791;50.876;4.342;2024-02-23T13:18:10;9.10;99.90
17348;DHT22;8791;50.876;4.342;2024-02-23T13:20:38;9.00;99.90
17348;DHT22;8791;50.876;4.342;2024-02-23T13:23:07;9.10;99.90
17348;DHT22;8791;50.876;4.342;2024-02-23T13:25:34;9.00;99.90
17348;DHT22;8791;50.876;4.342;2024-02-23T13:28:04;9.00;99.90
17348;DHT22;8791;50.876;4.342;2024-02-23T13:30:30;9.10;99.90
17348;DHT22;8791;50.876;4.342;2024-02-23T13:32:57;9.20;99.90
17348;DHT22;8791;50.876;4.342;2024-02-23T13:35:24;9.20;99.90
17348;DHT22;8791;50.876;4.342;2024-02-23T13:37:51;9.40;99.90
17348;DHT22;8791;50.876;4.342;2024-02-23T13:40:20;9.20;99.90
17348;DHT22;8791;50.876;4.342;2024-02-23T13:42:47;9.30;99.90
17348;DHT22;8791;50.876;4.342;2024-02-23T13:45:17;9.20;99.90
17348;DHT22;8791;50.876;4.342;2024-02-23T13:47:58;9.30;99.90
17348;DHT22;8791;50.876;4.342;2024-02-23T13:50:25;9.20;99.90
17348;DHT22;8791;50.876;4.342;2024-02-23T13:52:52;9.20;99.90
17348;DHT22;8791;50.876;4.342;2024-02-23T13:55:20;9.30;99.90
17348;DHT22;8791;50.876;4.342;2024-02-23T13:57:47;9.40;99.90
17348;DHT22;8791;50.876;4.342;2024-02-23T14:00:17;9.30;99.90
17348;DHT22;8791;50.876;4.342;2024-02-23T14:02:44;9.30;99.90
17348;DHT22;8791;50.876;4.342;2024-02-23T14:05:12;9.30;99.90
17348;DHT22;8791;50.876;4.342;2024-02-23T14:07:39;9.30;99.90
17348;DHT22;8791;50.876;4.342;2024-02-23T14:10:07;9.30;99.90
17348;DHT22;8791;50.876;4.342;2024-02-23T14:12:34;9.40;99.90
17348;DHT22;8791;50.876;4.342;2024-02-23T14:15:01;9.50;99.90
17348;DHT22;8791;50.876;4.342;2024-02-23T14:17:29;9.60;99.90
17348;DHT22;8791;50.876;4.342;2024-02-23T14:19:56;9.50;99.90
17348;DHT22;8791;50.876;4.342;2024-02-23T14:22:23;9.50;99.90
17348;DHT22;8791;50.876;4.342;2024-02-23T14:24:50;9.50;99.90
17348;DHT22;8791;50.876;4.342;2024-02-23T14:27:17;9.50;99.90
17348;DHT22;8791;50.876;4.342;2024-02-23T14:29:44;9.60;99.90
17348;DHT22;8791;50.876;4.342;2024-02-23T14:32:15;9.70;99.90
17348;DHT22;8791;50.876;4.342;2024-02-23T14:34:44;9.60;99.90
17348;DHT22;8791;50.876;4.342;2024-02-23T14:37:11;9.60;99.90
17348;DHT22;8791;50.876;4.342;2024-02-23T14:39:37;9.70;99.90
17348;DHT22;8791;50.876;4.342;2024-02-23T14:42:05;9.80;99.90
17348;DHT22;8791;50.876;4.342;2024-02-23T14:44:34;9.80;99.90
17348;DHT22;8791;50.876;4.342;2024-02-23T14:47:02;9.80;99.90
17348;DHT22;8791;50.876;4.342;2024-02-23T14:49:30;9.80;99.90
17348;DHT22;8791;50.876;4.342;2024-02-23T14:51:59;9.80;99.90
17348;DHT22;8791;50.876;4.342;2024-02-23T14:54:25;9.80;99.90
17348;DHT22;8791;50.876;4.342;2024-02-23T14:56:52;9.70;99.90
17348;DHT22;8791;50.876;4.342;2024-02-23T14:59:19;9.80;99.90
17348;DHT22;8791;50.876;4.342;2024-02-23T15:01:46;9.90;99.90
17348;DHT22;8791;50.876;4.342;2024-02-23T15:04:13;9.80;99.90
17348;DHT22;8791;50.876;4.342;2024-02-23T15:06:40;9.70;99.90
17348;DHT22;8791;50.876;4.342;2024-02-23T15:09:08;9.80;99.90
17348;DHT22;8791;50.876;4.342;2024-02-23T15:11:36;9.80;99.90
17348;DHT22;8791;50.876;4.342;2024-02-23T15:14:03;9.80;99.90
17348;DHT22;8791;50.876;4.342;2024-02-23T15:16:30;9.80;99.90
17348;DHT22;8791;50.876;4.342;2024-02-23T15:18:57;9.70;99.90
17348;DHT22;8791;50.876;4.342;2024-02-23T15:21:24;9.80;99.90
17348;DHT22;8791;50.876;4.342;2024-02-23T15:23:52;9.70;99.90
17348;DHT22;8791;50.876;4.342;2024-02-23T15:26:20;9.70;99.90
17348;DHT22;8791;50.876;4.342;2024-02-23T15:28:47;9.70;99.90
17348;DHT22;8791;50.876;4.342;2024-02-23T15:31:14;9.60;99.90
17348;DHT22;8791;50.876;4.342;2024-02-23T15:33:41;9.70;99.90
17348;DHT22;8791;50.876;4.342;2024-02-23T15:36:07;9.70;99.90
17348;DHT22;8791;50.876;4.342;2024-02-23T15:38:34;9.90;99.90
17348;DHT22;8791;50.876;4.342;2024-02-23T15:41:02;9.90;99.90
17348;DHT22;8791;50.876;4.342;2024-02-23T15:43:30;9.90;99.90
17348;DHT22;8791;50.876;4.342;2024-02-23T15:45:57;10.00;99.90
17348;DHT22;8791;50.876;4.342;2024-02-23T15:48:25;10.00;99.90
17348;DHT22;8791;50.876;4.342;2024-02-23T15:50:52;10.00;99.90
17348;DHT22;8791;50.876;4.342;2024-02-23T15:53:19;10.00;99.90
17348;DHT22;8791;50.876;4.342;2024-02-23T15:55:46;10.00;99.90
17348;DHT22;8791;50.876;4.342;2024-02-23T15:58:13;10.00;99.90
17348;DHT22;8791;50.876;4.342;2024-02-23T16:00:43;10.00;99.90
17348;DHT22;8791;50.876;4.342;2024-02-23T16:03:10;10.00;99.90
17348;DHT22;8791;50.876;4.342;2024-02-23T16:05:37;9.90;99.90